Dangriga, Belize
Current Conditions -  °F | °C
As of 6:00 PM on Thursday 27 Nov 2014 (Local Time) from MZBZ Reporting Station
Broken Clouds Broken Clouds  
Wind Chill: 68°   Ceiling: 3000
Heat Index: 68°   Visibility: 6mi
Dew Point: 68°   Wind: 7mph
Humidity: 100%   Direction: 280°W
Pressure: 30.14"   Gusts: NA
Location:  16.97°N, 88.22°W
Report Text: MZBZ 280000Z 28006KT 9999 BKN030 20/20 A3014 Q1020 RERA NOSIG
Loading
Personal Weather Stations






























Interactive Weather Map New forecast layout! Learn more

10-Day Weather Forecast

Advertisements
Track Severe Weather on mobile